Time;durP1;ratioP1;P1;durP2;ratioP2;P2;SDS_P1;SDS_P2;PMS_P1;PMS_P2;Temp;Humidity;BMP_temperature;BMP_pressure;BME280_temperature;BME280_humidity;BME280_pressure;Samples;Min_cycle;Max_cycle;Signal;HPM_P1;HPM_P2
2021/12/17 00:14:00;;;;;;;13.57;4.47;;;;;;;4.49;100.00;101589.67;715114;1202;114051;-74
2021/12/17 00:59:46;;;;;;;12.53;5.38;;;;;;;4.31;100.00;101588.67;714069;1200;114469;-74
2021/12/17 01:14:50;;;;;;;22.63;5.23;;;;;;;4.20;100.00;101591.71;714681;1200;114292;-75
2021/12/17 01:45:15;;;;;;;17.20;5.85;;;;;;;4.05;100.00;101590.58;714394;1189;113849;-75
2021/12/17 02:00:24;;;;;;;16.03;4.58;;;;;;;4.03;100.00;101573.38;714288;1200;115388;-75
2021/12/17 02:31:01;;;;;;;22.17;6.33;;;;;;;4.00;100.00;101562.19;714596;1181;115700;-75
2021/12/17 02:46:04;;;;;;;17.37;4.00;;;;;;;3.93;100.00;101565.95;714124;1199;114895;-75
2021/12/17 03:01:10;;;;;;;16.98;4.23;;;;;;;3.87;100.00;101581.77;713936;1202;113601;-75
2021/12/17 03:16:34;;;;;;;13.73;4.43;;;;;;;3.75;100.00;101569.23;714300;1200;115285;-75
2021/12/17 03:31:37;;;;;;;21.18;4.00;;;;;;;3.64;100.00;101561.88;713967;1199;114423;-75
2021/12/17 03:46:40;;;;;;;14.93;3.63;;;;;;;3.62;100.00;101554.16;714252;1199;115779;-75
2021/12/17 04:01:42;;;;;;;13.53;4.93;;;;;;;3.57;100.00;101548.30;714026;1176;114636;-74
2021/12/17 04:16:46;;;;;;;19.53;5.20;;;;;;;3.50;100.00;101560.66;713987;1200;114122;-75
2021/12/17 04:31:53;;;;;;;13.55;3.63;;;;;;;3.43;100.00;101556.63;714021;1203;115349;-75
2021/12/17 04:57:13;;;;;;;;;;;;;;;3.41;100.00;101571.38;714226;1175;114687;-75
2021/12/17 05:02:18;;;;;;;28.93;8.93;;;;;;;3.46;100.00;101569.47;713994;1177;99973;-75
2021/12/17 05:32:41;;;;;;;22.03;4.95;;;;;;;3.41;100.00;101562.77;715921;1175;114102;-74
2021/12/17 05:47:44;;;;;;;13.07;3.87;;;;;;;3.35;100.00;101558.63;715398;1200;115411;-74
2021/12/17 06:02:46;;;;;;;23.37;5.87;;;;;;;3.32;100.00;101553.58;715632;1177;115545;-75
2021/12/17 06:17:50;;;;;;;72.93;48.08;;;;;;;3.31;100.00;101564.84;716416;1176;113980;-74
2021/12/17 06:32:52;;;;;;;30.77;13.57;;;;;;;3.24;100.00;101564.23;716575;1175;114276;-75
2021/12/17 06:47:58;;;;;;;125.87;45.43;;;;;;;3.19;100.00;101562.72;714388;1177;114888;-75
2021/12/17 07:34:00;;;;;;;83.75;31.50;;;;;;;3.41;100.00;101638.84;714038;1199;115240;-74
2021/12/17 07:49:02;;;;;;;73.80;24.67;;;;;;;3.45;100.00;101624.85;714216;1200;114227;-79
2021/12/17 08:04:06;;;;;;;511.23;161.38;;;;;;;3.50;100.00;101635.08;714121;1200;114165;-78
2021/12/17 08:34:32;;;;;;;221.47;87.27;;;;;;;4.76;100.00;101638.80;714379;1174;114991;-79
2021/12/17 08:49:35;;;;;;;100.55;41.70;;;;;;;4.87;100.00;101647.02;714398;1200;114749;-76
2021/12/17 09:04:41;;;;;;;140.90;44.33;;;;;;;4.70;100.00;101655.52;714293;1177;114201;-77
2021/12/17 09:19:44;;;;;;;79.40;35.40;;;;;;;5.00;100.00;101644.70;714847;1200;114341;-76
2021/12/17 09:34:46;;;;;;;38.35;15.33;;;;;;;6.68;100.00;101636.14;715139;1204;115934;-76
2021/12/17 09:49:53;;;;;;;18.95;7.85;;;;;;;7.93;100.00;101631.33;724295;1177;113893;-77
2021/12/17 10:04:55;;;;;;;14.95;5.73;;;;;;;8.71;100.00;101636.53;725488;1203;115426;-77
2021/12/17 10:19:58;;;;;;;15.63;5.43;;;;;;;8.18;100.00;101640.42;714095;1200;114574;-77
2021/12/17 10:35:01;;;;;;;12.15;4.03;;;;;;;7.51;100.00;101620.55;714398;1200;114298;-77
2021/12/17 10:50:04;;;;;;;12.43;4.40;;;;;;;7.32;100.00;101615.45;714379;1203;115342;-77
2021/12/17 11:05:12;;;;;;;27.80;12.23;;;;;;;7.24;100.00;101622.86;714259;1203;114428;-77
2021/12/17 11:20:20;;;;;;;22.90;10.55;;;;;;;7.12;100.00;101609.52;714143;1200;114115;-77
2021/12/17 11:35:26;;;;;;;15.45;5.98;;;;;;;7.17;100.00;101627.56;714412;1177;114760;-76
2021/12/17 11:50:31;;;;;;;15.93;5.95;;;;;;;7.18;100.00;101631.86;714517;1200;113948;-76
2021/12/17 12:05:37;;;;;;;16.47;6.43;;;;;;;7.26;100.00;101628.86;714255;1199;114616;-77
2021/12/17 12:20:49;;;;;;;12.55;5.00;;;;;;;7.17;100.00;101632.78;713875;1200;113884;-78
2021/12/17 12:35:57;;;;;;;19.35;7.55;;;;;;;7.11;100.00;101638.31;715875;1192;115220;-78
2021/12/17 12:51:21;;;;;;;71.07;29.77;;;;;;;7.09;100.00;101646.23;716518;1199;114632;-83
2021/12/17 13:06:25;;;;;;;36.83;16.83;;;;;;;7.24;100.00;101664.63;717060;1199;115428;-73
2021/12/17 13:36:32;;;;;;;19.28;7.40;;;;;;;7.11;100.00;101693.98;717819;1199;115599;-75
2021/12/17 13:51:34;;;;;;;141.10;44.40;;;;;;;6.96;100.00;101690.36;715693;1199;115361;-78
2021/12/17 14:06:50;;;;;;;213.85;74.00;;;;;;;6.73;100.00;101690.66;715481;1202;114894;-76
2021/12/17 14:21:53;;;;;;;122.83;47.83;;;;;;;6.53;100.00;101702.91;715537;1200;114858;-76
2021/12/17 14:37:02;;;;;;;45.83;15.95;;;;;;;6.19;100.00;101714.97;715195;1199;113771;-76
2021/12/17 15:07:29;;;;;;;14.83;7.08;;;;;;;6.08;100.00;101698.98;715202;1199;113849;-76
2021/12/17 15:22:31;;;;;;;20.45;7.45;;;;;;;5.89;100.00;101722.41;715530;1199;114214;-74
2021/12/17 15:37:34;;;;;;;27.50;11.05;;;;;;;6.02;100.00;101730.52;715947;1174;113828;-75
2021/12/17 15:52:43;;;;;;;23.02;9.53;;;;;;;6.12;100.00;101752.63;715665;1200;114515;-75
2021/12/17 16:07:46;;;;;;;36.68;12.35;;;;;;;6.14;100.00;101754.25;715069;1178;113968;-73
2021/12/17 16:22:49;;;;;;;21.10;10.00;;;;;;;6.20;100.00;101773.13;716000;1200;114747;-73
2021/12/17 16:37:52;;;;;;;75.35;27.18;;;;;;;6.20;100.00;101791.38;716365;1200;114002;-76
2021/12/17 16:52:55;;;;;;;41.60;16.40;;;;;;;6.23;100.00;101801.64;715975;1176;114144;-77
2021/12/17 17:07:58;;;;;;;38.75;14.70;;;;;;;6.23;100.00;101812.94;716502;1199;114532;-77
2021/12/17 17:23:02;;;;;;;73.93;26.35;;;;;;;6.21;100.00;101814.75;716516;1202;114535;-78
2021/12/17 17:38:05;;;;;;;78.43;32.17;;;;;;;6.21;100.00;101842.58;715600;1200;114294;-76
2021/12/17 17:53:11;;;;;;;84.45;29.25;;;;;;;6.26;100.00;101880.55;715567;1200;115287;-78
2021/12/17 18:08:14;;;;;;;48.10;21.17;;;;;;;6.21;100.00;101903.36;715788;1193;114999;-79
2021/12/17 18:23:18;;;;;;;37.73;15.77;;;;;;;6.14;100.00;101907.16;716081;1203;113999;-78
2021/12/17 18:38:22;;;;;;;28.15;11.58;;;;;;;6.01;100.00;101904.23;717192;1177;115062;-80
2021/12/17 18:53:27;;;;;;;28.43;10.43;;;;;;;5.97;100.00;101906.08;718955;1177;114219;-80
2021/12/17 19:08:31;;;;;;;40.85;17.88;;;;;;;5.92;100.00;101921.06;716307;1200;114718;-76
2021/12/17 19:23:34;;;;;;;34.85;11.95;;;;;;;5.94;100.00;101928.84;715692;1200;114046;-76
2021/12/17 19:38:38;;;;;;;28.87;10.40;;;;;;;5.74;100.00;101942.66;715401;1199;115054;-73
2021/12/17 19:53:40;;;;;;;25.33;12.53;;;;;;;5.59;100.00;101946.76;715735;1184;114393;-72
2021/12/17 20:08:43;;;;;;;37.75;15.10;;;;;;;5.31;100.00;101960.88;715311;1177;114567;-76
2021/12/17 20:23:46;;;;;;;43.67;16.17;;;;;;;5.09;100.00;101969.48;715846;1177;114397;-76
2021/12/17 20:38:56;;;;;;;41.03;15.28;;;;;;;4.89;100.00;101972.85;715587;1177;114158;-75
2021/12/17 20:54:00;;;;;;;62.85;23.48;;;;;;;4.65;100.00;101975.45;715362;1200;114968;-76
2021/12/17 21:09:06;;;;;;;89.60;30.03;;;;;;;4.46;100.00;101998.66;722233;1176;114601;-75
2021/12/17 21:24:10;;;;;;;45.50;17.37;;;;;;;4.19;100.00;102010.01;717489;1200;115644;-75
2021/12/17 21:39:13;;;;;;;58.58;21.25;;;;;;;4.25;100.00;101999.38;715176;1200;114665;-75
2021/12/17 21:54:15;;;;;;;44.85;16.45;;;;;;;4.36;100.00;101979.09;714529;1176;114180;-74
2021/12/17 22:09:18;;;;;;;368.43;119.73;;;;;;;4.53;100.00;101985.42;714681;1200;114642;-76
2021/12/17 22:24:21;;;;;;;64.08;23.05;;;;;;;4.41;100.00;102000.57;715419;1200;116126;-73
2021/12/17 22:39:23;;;;;;;47.60;16.70;;;;;;;4.31;100.00;102035.56;716124;1203;115384;-73
2021/12/17 22:54:33;;;;;;;56.78;16.53;;;;;;;4.38;100.00;102028.41;716351;1184;115411;-75
2021/12/17 23:09:38;;;;;;;32.85;11.45;;;;;;;4.32;100.00;102009.52;714632;1202;114228;-74
2021/12/17 23:24:40;;;;;;;30.35;11.85;;;;;;;4.13;100.00;102022.30;714430;1176;114085;-74
2021/12/17 23:39:43;;;;;;;29.80;10.83;;;;;;;4.00;100.00;102001.07;715521;1202;114610;-74
2021/12/17 23:54:45;;;;;;;15.27;6.53;;;;;;;4.12;100.00;101986.83;714388;1177;114225;-74
